createdAt,value
2023-03-06T04:43:17.645Z,99752.53
2023-03-06T04:46:20.924Z,99752.53
2023-03-06T04:49:42.210Z,99755.38
2023-03-06T04:52:45.455Z,99755.38
2023-03-06T04:55:48.070Z,99752.47
2023-03-06T04:58:51.170Z,99751.47
2023-03-06T05:01:53.778Z,99753.00
2023-03-06T05:04:56.618Z,99747.06
2023-03-06T05:07:59.038Z,99753.03
2023-03-06T05:11:02.597Z,99750.53
2023-03-06T05:14:05.387Z,99757.25
2023-03-06T05:17:08.034Z,99752.25
2023-03-06T05:20:12.158Z,99754.03
2023-03-06T05:23:14.802Z,99753.09
2023-03-06T05:26:17.270Z,99752.94
2023-03-06T05:29:20.373Z,99757.09
2023-03-06T05:32:23.798Z,99755.41
2023-03-06T05:35:26.683Z,99757.03
2023-03-06T05:38:29.573Z,99749.28
2023-03-06T05:41:32.704Z,99752.91
2023-03-06T05:44:36.182Z,99756.47
2023-03-06T05:47:38.964Z,99756.94
2023-03-06T05:50:41.447Z,99755.09
2023-03-06T05:53:44.177Z,99752.56
2023-03-06T05:56:46.654Z,99751.06
2023-03-06T05:59:50.083Z,99755.13
2023-03-06T06:02:55.783Z,99759.66
2023-03-06T06:05:58.591Z,99765.72
2023-03-06T06:09:03.724Z,99765.19
2023-03-06T06:12:07.056Z,99767.75
2023-03-06T06:15:09.881Z,99762.06
2023-03-06T06:18:12.609Z,99759.75
2023-03-06T06:21:15.030Z,99760.62
2023-03-06T06:24:20.453Z,99759.34
2023-03-06T06:27:22.769Z,99773.78
2023-03-06T06:30:25.460Z,99774.69
2023-03-06T06:33:28.013Z,99773.88
2023-03-06T06:36:32.703Z,99775.56
2023-03-06T06:39:35.066Z,99772.84
2023-03-06T06:42:40.128Z,99782.19
2023-03-06T06:45:44.210Z,99780.75
2023-03-06T06:48:52.433Z,99781.09
2023-03-06T06:51:54.792Z,99773.22
2023-03-06T06:54:57.700Z,99767.22
2023-03-06T06:58:00.180Z,99768.84
2023-03-06T07:01:08.060Z,99771.28
2023-03-06T07:04:14.697Z,99772.78
2023-03-06T07:07:17.376Z,99779.84
2023-03-06T07:10:21.042Z,99772.06
2023-03-06T07:13:23.908Z,99788.47
2023-03-06T07:16:26.944Z,99789.25
2023-03-06T07:19:29.643Z,99784.62
2023-03-06T07:22:38.706Z,99788.56
2023-03-06T07:25:51.204Z,99786.41
2023-03-06T07:28:54.324Z,99788.84
2023-03-06T07:31:57.034Z,99793.78
2023-03-06T07:35:18.710Z,99799.94
2023-03-06T07:38:22.242Z,99793.53
2023-03-06T07:41:24.934Z,99795.25
2023-03-06T07:44:28.127Z,99799.88
2023-03-06T07:47:30.480Z,99804.59
2023-03-06T07:50:33.309Z,99799.25
2023-03-06T07:53:35.696Z,99801.78
2023-03-06T07:56:38.405Z,99809.31
2023-03-06T07:59:40.966Z,99807.22
2023-03-06T08:02:44.511Z,99813.22
2023-03-06T08:05:47.412Z,99810.34
2023-03-06T08:08:51.239Z,99810.25
2023-03-06T08:11:53.886Z,99821.88
2023-03-06T08:14:56.256Z,99818.84
2023-03-06T08:17:58.973Z,99820.78
2023-03-06T08:21:02.900Z,99819.16
2023-03-06T08:24:07.427Z,99818.37
2023-03-06T08:27:09.932Z,99809.16
2023-03-06T08:30:13.121Z,99815.22
2023-03-06T08:33:15.525Z,99802.41
2023-03-06T08:36:18.184Z,99803.31
2023-03-06T08:39:21.271Z,99805.59
2023-03-06T08:42:23.896Z,99801.19
2023-03-06T08:45:26.329Z,99797.63
2023-03-06T08:48:29.508Z,99801.31
2023-03-06T08:51:32.139Z,99802.22
2023-03-06T08:54:36.320Z,99807.34
2023-03-06T08:57:38.620Z,99796.69
2023-03-06T09:00:41.615Z,99801.88
2023-03-06T09:03:44.422Z,99802.06
2023-03-06T09:06:47.118Z,99794.19
2023-03-06T09:09:49.626Z,99786.44
2023-03-06T09:12:55.099Z,99781.88
2023-03-06T09:15:57.760Z,99778.16
2023-03-06T09:19:00.514Z,99779.03
2023-03-06T09:22:03.108Z,99787.50
2023-03-06T09:25:06.412Z,99779.72
2023-03-06T09:28:11.653Z,99772.81
2023-03-06T09:31:17.426Z,99764.28
2023-03-06T09:34:20.435Z,99756.94
2023-03-06T09:37:23.387Z,99760.16
2023-03-06T09:40:42.488Z,99758.69
2023-03-06T09:43:48.160Z,99758.56
2023-03-06T09:47:09.121Z,99758.91
2023-03-06T09:50:36.034Z,99755.72
2023-03-06T09:53:47.986Z,99746.28
2023-03-06T09:56:50.844Z,99753.88
2023-03-06T09:59:58.677Z,99754.09
2023-03-06T10:03:10.201Z,99747.34
2023-03-06T10:06:21.039Z,99754.72
2023-03-06T10:09:29.338Z,99747.28
2023-03-06T10:12:42.562Z,99746.84
2023-03-06T10:15:47.248Z,99739.66
2023-03-06T10:18:50.676Z,99738.75
2023-03-06T10:22:14.636Z,99744.16
2023-03-06T10:25:27.980Z,99744.47
2023-03-06T10:28:39.379Z,99744.38
2023-03-06T10:31:52.064Z,99742.50
2023-03-06T10:34:59.237Z,99735.56
2023-03-06T10:38:26.268Z,99734.81
2023-03-06T10:41:31.191Z,99736.13
2023-03-06T10:44:34.074Z,99724.75
2023-03-06T10:47:38.065Z,99723.94
2023-03-06T10:50:40.776Z,99705.16
2023-03-06T10:54:18.040Z,99706.53
2023-03-06T10:57:28.131Z,99692.81
2023-03-06T11:00:33.702Z,99695.28
2023-03-06T11:03:37.296Z,99678.75
2023-03-06T11:06:39.754Z,99686.25
2023-03-06T11:10:01.065Z,99676.16
2023-03-06T11:13:22.459Z,99668.34
2023-03-06T11:16:33.087Z,99653.84
2023-03-06T11:19:35.995Z,99648.06
2023-03-06T11:22:40.442Z,99644.09
2023-03-06T11:25:53.099Z,99637.00
2023-03-06T11:29:04.304Z,99630.72
2023-03-06T11:32:10.800Z,99623.00
2023-03-06T11:35:20.981Z,99619.69
2023-03-06T11:38:46.169Z,99617.22
2023-03-06T11:41:57.491Z,99595.31
2023-03-06T11:45:00.780Z,99591.38
2023-03-06T11:48:13.973Z,99580.25
2023-03-06T11:51:25.846Z,99573.41
2023-03-06T11:54:28.646Z,99572.16
2023-03-06T11:58:09.189Z,99562.06
2023-03-06T12:01:24.534Z,99559.75
2023-03-06T12:05:06.822Z,99551.94
2023-03-06T12:08:31.433Z,99542.59
2023-03-06T12:11:43.098Z,99537.38
2023-03-06T12:15:04.185Z,99531.88
2023-03-06T12:18:34.175Z,99523.66
2023-03-06T12:22:17.820Z,99534.50
2023-03-06T12:25:30.976Z,99523.00
2023-03-06T12:28:40.988Z,99526.75
2023-03-06T12:32:06.840Z,99533.06
2023-03-06T12:35:47.550Z,99525.69
2023-03-06T12:39:24.803Z,99523.22
2023-03-06T12:43:10.204Z,99529.34
2023-03-06T12:46:16.614Z,99515.13
2023-03-06T12:49:33.003Z,99512.31
2023-03-06T12:52:36.437Z,99513.94
2023-03-06T12:55:42.516Z,99510.03
2023-03-06T12:58:54.000Z,99512.41
2023-03-06T13:02:21.060Z,99501.69
2023-03-06T13:06:11.769Z,99504.81
2023-03-06T13:09:22.603Z,99496.53
2023-03-06T13:12:57.728Z,99496.56
2023-03-06T13:16:18.685Z,99492.97
2023-03-06T13:19:26.532Z,99491.59
2023-03-06T13:22:30.139Z,99497.44
2023-03-06T13:25:33.321Z,99486.78
2023-03-06T13:28:49.951Z,99478.62
2023-03-06T13:31:52.573Z,99475.53
2023-03-06T13:34:55.032Z,99485.63
2023-03-06T13:38:01.134Z,99475.31
2023-03-06T13:41:22.492Z,99466.94
2023-03-06T13:44:25.368Z,99463.59
2023-03-06T13:47:39.738Z,99456.47
2023-03-06T13:50:52.748Z,99456.25
2023-03-06T13:54:45.832Z,99456.09
2023-03-06T13:57:51.113Z,99469.34
2023-03-06T14:00:59.533Z,99448.75
2023-03-06T14:04:02.194Z,99437.72
2023-03-06T14:07:28.532Z,99441.75
2023-03-06T14:10:34.460Z,99444.66
2023-03-06T14:13:47.853Z,99439.03
2023-03-06T14:16:55.482Z,99432.38
2023-03-06T14:20:23.377Z,99433.91
2023-03-06T14:23:26.026Z,99430.84
2023-03-06T14:26:41.381Z,99432.25
2023-03-06T14:29:46.464Z,99430.56
2023-03-06T14:32:51.817Z,99450.03
2023-03-06T14:35:56.713Z,99435.88
2023-03-06T14:39:04.820Z,99433.69
2023-03-06T14:42:21.137Z,99437.28
2023-03-06T14:45:24.876Z,99425.84
2023-03-06T14:48:49.435Z,99424.09
2023-03-06T14:52:00.485Z,99434.78
2023-03-06T14:55:08.955Z,99432.72
2023-03-06T14:58:18.784Z,99421.94
2023-03-06T15:01:38.205Z,99424.06
2023-03-06T15:04:55.098Z,99425.06
2023-03-06T15:08:07.236Z,99420.56
2023-03-06T15:11:09.980Z,99413.72
2023-03-06T15:14:18.694Z,99426.94
2023-03-06T15:17:23.897Z,99425.97
2023-03-06T15:20:41.307Z,99421.69
2023-03-06T15:23:49.572Z,99417.59
2023-03-06T15:26:55.355Z,99407.06
2023-03-06T15:30:36.572Z,99404.09
2023-03-06T15:33:39.339Z,99403.69
2023-03-06T15:36:48.947Z,99408.94
2023-03-06T15:40:09.406Z,99407.97
2023-03-06T15:43:11.923Z,99402.03
2023-03-06T15:46:14.793Z,99408.59
2023-03-06T15:49:18.467Z,99405.25
2023-03-06T15:52:22.381Z,99408.28
2023-03-06T15:55:26.031Z,99410.25
2023-03-06T15:58:31.665Z,99409.13
2023-03-06T16:01:36.180Z,99409.06
2023-03-06T16:04:39.993Z,99409.00
2023-03-06T16:07:42.761Z,99417.50
2023-03-06T16:10:45.745Z,99419.66
2023-03-06T16:13:48.159Z,99415.16
2023-03-06T16:16:53.555Z,99416.53
2023-03-06T16:19:56.151Z,99420.63
2023-03-06T16:22:59.313Z,99418.12
2023-03-06T16:26:01.717Z,99425.22
2023-03-06T16:29:05.195Z,99414.03
2023-03-06T16:32:10.877Z,99408.75
2023-03-06T16:35:14.373Z,99420.63
2023-03-06T16:38:16.793Z,99425.31
2023-03-06T16:41:20.317Z,99434.56
2023-03-06T16:44:22.777Z,99435.25
2023-03-06T16:47:25.438Z,99439.63
2023-03-06T16:50:41.470Z,99441.31
